GMMC/CAS METAR and TAF weather

Enter ICAO airport designator
Station Type Date Time Source
GMMC METAR 2019/05/25 09:00 UTC NOAA

GMMC 250900Z 06004KT 9999 FEW016 SCT200 21/14 Q1015


Station Type Date Time Source
GMMC Decoded METAR 2019/05/25 09:00 UTC NOAA

Casablanca, Morocco (GMMC) 33-34N 007-40W 62M
May 25, 2019 - 05:00 AM EDT / 2019.05.25 0900 UTC
Wind: from the ENE (060 degrees) at 5 MPH (4 KT):0
Visibility: greater than 7 mile(s):0
Sky conditions: partly cloudy
Temperature: 69 F (21 C)
Dew Point: 57 F (14 C)
Relative Humidity: 64%
Pressure (altimeter): 29.97 in. Hg (1015 hPa)
ob: GMMC 250900Z 06004KT 9999 FEW016 SCT200 21/14 Q1015
cycle: 9

Station Type Date Time Source
GMMC TAF 2016/05/22 17:00 UTC NOAA

FTMC31 GMMC 221700 RRA TAF LPPT 221700Z 2218/2324 34013KT CAVOK
BECMG 2221/2224 34007KT
BECMG 2310/2312 VRB03KT

Example: see airport list